Latest Coastal Weather Observations for Bougainville Reef

IDQ60701

Issued at 3:55 am EST Sunday 20 April 2014 (issued every 10 minutes, with the page automatically refreshed every 10 minutes)

About coastal observations | Map of coastal stations | Coastal observations for QLD | Marine services | Other Formats
Station Details ID: 200840 Name: BOUGAINVILLE REEF Lat: -15.49 Lon: 147.12 Height: 0.0 m
Data from the previous 72 hours. | See also: Recent months for locations in Queensland
Date/Time
EST
Temp

°C
Wind Pressure Rain
since 9am
mm
Weather Cloud Vis
km
Sea
Height
m
Swell
Dir
 
Speed
knots
Gust
knots
hPa Trend Height
m
Period
s
Dir
20/03:30am 26.3 ESE 21 26 1011.5 - - - - - - - - -
20/03:00am 26.4 ESE 19 24 1011.6 - - - - - - - - -
20/02:30am 26.4 ESE 18 22 1011.8 - - - - - - - - -
20/02:00am 26.4 ESE 20 26 1011.9 - - - - - - - - -
20/01:30am 26.5 ESE 20 25 1012.3 - - - - - - - - -
20/01:00am 26.6 ESE 20 27 1012.5 - - - - - - - - -
20/12:30am 26.5 ESE 21 26 1012.8 - - - - - - - - -
20/12:00am 26.6 ESE 20 25 1013.1 - - - - - - - - -
 
Date/Time
EST
Temp

°C
Wind Pressure Rain
since 9am
mm
Weather Cloud Vis
km
Sea
Height
m
Swell
Dir
 
Speed
knots
Gust
knots
hPa Trend Height
m
Period
s
Dir
19/11:30pm 26.7 ESE 20 25 1013.3 - - - - - - - - -
19/11:00pm 26.8 ESE 21 25 1013.3 - - - - - - - - -
19/10:30pm 26.8 ESE 22 26 1013.5 - - - - - - - - -
19/10:00pm 26.8 ESE 22 29 1013.4 - - - - - - - - -
19/09:30pm 26.8 ESE 23 27 1013.5 - - - - - - - - -
19/09:00pm 26.7 ESE 23 28 1013.3 - - - - - - - - -
19/08:30pm 26.7 ESE 21 27 1013.3 - - - - - - - - -
19/08:00pm 26.8 ESE 20 26 1013.1 - - - - - - - - -
19/07:30pm 26.8 ESE 22 28 1013.0 - - - - - - - - -
19/07:00pm 26.9 ESE 21 26 1012.6 - - - - - - - - -
19/06:30pm 26.8 ESE 20 25 1012.5 - - - - - - - - -
19/06:00pm 26.8 ESE 20 26 1012.0 - - - - - - - - -
19/05:42pm 26.8 SE 20 25 1012.0 - - - - - - - - -
19/05:40pm 26.8 E 19 25 1012.0 - - - - - - - - -
19/05:30pm 26.8 SE 21 25 1011.9 - - - - - - - - -
19/05:00pm 26.8 SE 21 26 1011.5 - - - - - - - - -
19/04:30pm 26.8 ESE 22 27 1011.4 - - - - - - - - -
19/04:00pm 26.8 ESE 22 25 1010.9 - - - - - - - - -
19/03:30pm 26.7 SE 19 25 1011.2 - - - - - - - - -
19/03:00pm 26.7 SE 20 26 1011.4 - - - - - - - - -
19/02:30pm 26.8 SE 18 23 1011.7 - - - - - - - - -
19/02:00pm 26.8 SE 18 23 1012.1 - - - - - - - - -
19/01:30pm 27.0 SE 18 23 1012.5 - - - - - - - - -
19/01:00pm 26.8 ESE 20 25 1012.7 - - - - - - - - -
19/12:30pm 26.8 ESE 21 25 1013.0 - - - - - - - - -
19/12:00pm 26.7 ESE 20 25 1013.5 - - - - - - - - -
19/11:30am 26.7 ESE 21 25 1013.8 - - - - - - - - -
19/11:00am 26.8 ESE 21 25 1014.3 - - - - - - - - -
19/10:30am 26.9 ESE 22 26 1014.5 - - - - - - - - -
19/10:00am 26.8 ESE 22 25 1014.4 - - - - - - - - -
19/09:30am 26.9 ESE 21 26 1014.4 - - - - - - - - -
19/09:24am 26.9 ESE 21 26 1014.3 - - - - - - - - -
19/09:23am 26.8 NE 22 26 1014.3 - - - - - - - - -
19/09:00am 26.8 ESE 21 25 1013.9 - - - - - - - - -
19/08:30am 27.0 ESE 22 26 1013.9 - - - - - - - - -
19/08:00am 27.0 ESE 22 25 1013.5 - - - - - - - - -
19/07:30am 26.7 ESE 21 26 1013.5 - - - - - - - - -
19/07:00am 26.8 ESE 20 24 1013.1 - - - - - - - - -
19/06:30am 26.7 ESE 20 23 1013.2 - - - - - - - - -
19/06:00am 26.8 ESE 22 28 1012.7 - - - - - - - - -
19/05:30am 26.8 ESE 21 25 1012.8 - - - - - - - - -
19/05:00am 26.8 ESE 21 26 1012.5 - - - - - - - - -
19/04:30am 26.7 ESE 20 24 1012.7 - - - - - - - - -
19/04:00am 26.6 ESE 20 25 1012.6 - - - - - - - - -
19/03:30am 26.9 ESE 20 24 1012.8 - - - - - - - - -
19/03:00am 26.8 ESE 20 24 1012.8 - - - - - - - - -
19/02:30am 26.8 ESE 21 25 1012.8 - - - - - - - - -
19/02:00am 26.7 ESE 23 25 1013.0 - - - - - - - - -
19/01:30am 27.0 ESE 21 24 1013.3 - - - - - - - - -
19/01:00am 27.0 ESE 20 25 1013.7 - - - - - - - - -
19/12:30am 27.0 ESE 21 25 1014.0 - - - - - - - - -
19/12:00am 27.0 ESE 22 26 1014.3 - - - - - - - - -
 
Date/Time
EST
Temp

°C
Wind Pressure Rain
since 9am
mm
Weather Cloud Vis
km
Sea
Height
m
Swell
Dir
 
Speed
knots
Gust
knots
hPa Trend Height
m
Period
s
Dir
18/11:30pm 26.9 ESE 22 26 1014.5 - - - - - - - - -
18/11:00pm 26.9 SE 18 25 1014.5 - - - - - - - - -
18/10:30pm 27.1 ESE 19 25 1014.6 - - - - - - - - -
18/10:00pm 27.2 SE 21 27 1014.3 - - - - - - - - -
18/09:30pm 27.2 SE 21 26 1014.4 - - - - - - - - -
18/09:00pm 27.1 SE 19 25 1014.5 - - - - - - - - -
18/08:30pm 27.3 ESE 21 25 1014.4 - - - - - - - - -
18/08:00pm 27.1 ESE 21 26 1014.0 - - - - - - - - -
18/07:30pm 27.3 ESE 19 24 1013.8 - - - - - - - - -
18/07:00pm 27.4 ESE 22 26 1013.1 - - - - - - - - -
18/06:30pm 27.2 ESE 20 24 1013.0 - - - - - - - - -
18/06:00pm 27.3 ESE 21 23 1012.6 - - - - - - - - -
18/05:30pm 27.2 ESE 22 26 1012.4 - - - - - - - - -
18/05:00pm 27.2 ESE 20 25 1012.1 - - - - - - - - -
18/04:30pm 27.2 ESE 21 25 1012.1 - - - - - - - - -
18/04:00pm 27.4 ESE 20 24 1011.6 - - - - - - - - -
18/03:30pm 27.2 ESE 21 25 1011.5 - - - - - - - - -
18/03:00pm 27.3 ESE 19 25 1011.2 - - - - - - - - -
18/02:30pm 27.3 ESE 18 23 1011.5 - - - - - - - - -
18/02:00pm 27.3 ESE 21 24 1011.7 - - - - - - - - -
18/01:30pm 27.3 ESE 20 24 1012.0 - - - - - - - - -
18/01:00pm 27.4 ESE 22 27 1012.3 - - - - - - - - -
18/12:30pm 27.2 ESE 23 25 1012.6 - - - - - - - - -
18/12:00pm 27.3 ESE 23 26 1012.8 - - - - - - - - -
18/11:30am 27.1 ESE 22 27 1013.1 - - - - - - - - -
18/11:00am 27.1 ESE 19 25 1013.5 - - - - - - - - -
18/10:30am 27.1 ESE 20 25 1013.7 - - - - - - - - -
18/10:00am 27.3 ESE 23 26 1013.7 - - - - - - - - -
18/09:30am 27.2 ESE 22 25 1013.9 - - - - - - - - -
18/09:00am 27.1 ESE 22 27 1013.6 - - - - - - - - -
18/08:30am 27.2 ESE 23 26 1013.6 - - - - - - - - -
18/08:00am 27.1 ESE 23 27 1013.1 - - - - - - - - -
18/07:30am 27.0 ESE 22 27 1013.1 - - - - - - - - -
18/07:00am 27.1 ESE 23 27 1012.7 - - - - - - - - -
18/06:30am 27.0 ESE 24 29 1012.4 - - - - - - - - -
18/06:00am 27.1 ESE 24 27 1012.1 - - - - - - - - -
18/05:30am 27.0 E 23 28 1011.9 - - - - - - - - -
18/05:00am 26.9 E 23 25 1011.5 - - - - - - - - -
18/04:30am 27.1 E 24 28 1011.5 - - - - - - - - -
18/04:00am 26.8 ESE 23 28 1011.2 - - - - - - - - -
18/03:30am 27.0 ESE 23 27 1011.5 - - - - - - - - -
18/03:00am 27.0 E 23 26 1011.5 - - - - - - - - -
18/02:30am 27.1 E 23 27 1011.8 - - - - - - - - -
18/02:00am 27.2 E 23 27 1011.9 - - - - - - - - -
18/01:30am 27.0 E 23 26 1012.2 - - - - - - - - -
18/01:00am 27.1 E 23 27 1012.7 - - - - - - - - -
18/12:30am 27.2 E 23 27 1013.1 - - - - - - - - -
18/12:00am 27.2 ESE 25 27 1013.7 - - - - - - - - -
 
Date/Time
EST
Temp

°C
Wind Pressure Rain
since 9am
mm
Weather Cloud Vis
km
Sea
Height
m
Swell
Dir
 
Speed
knots
Gust
knots
hPa Trend Height
m
Period
s
Dir
17/11:30pm 27.4 ESE 23 28 1014.0 - - - - - - - - -
17/11:00pm 27.3 ESE 23 27 1014.1 - - - - - - - - -
17/10:30pm 27.1 E 23 27 1014.3 - - - - - - - - -
17/10:00pm 27.4 ESE 24 27 1014.1 - - - - - - - - -
17/09:30pm 27.4 ESE 22 27 1014.3 - - - - - - - - -
17/09:00pm 27.3 ESE 23 27 1014.1 - - - - - - - - -
17/08:30pm 27.4 ESE 22 25 1014.1 - - - - - - - - -
17/08:00pm 27.5 ESE 21 25 1013.7 - - - - - - - - -
17/07:30pm 27.4 ESE 21 25 1013.6 - - - - - - - - -
17/07:00pm 27.5 ESE 20 25 1012.9 - - - - - - - - -
17/06:30pm 27.4 ESE 20 25 1012.7 - - - - - - - - -
17/06:00pm 27.4 SE 19 23 1012.3 - - - - - - - - -
17/05:30pm 27.6 ESE 19 22 1012.2 - - - - - - - - -
17/05:00pm 27.6 ESE 18 23 1011.7 - - - - - - - - -
17/04:30pm 27.5 ESE 20 23 1011.6 - - - - - - - - -
17/04:00pm 27.6 SE 17 22 1011.3 - - - - - - - - -
17/03:30pm 27.6 SE 18 22 1011.3 - - - - - - - - -
17/03:00pm 27.6 ESE 19 22 1011.1 - - - - - - - - -
17/02:30pm 27.5 ESE 20 24 1011.4 - - - - - - - - -
17/02:00pm 27.4 ESE 18 21 1011.6 - - - - - - - - -
17/01:30pm 27.6 ESE 18 21 1011.9 - - - - - - - - -
17/01:00pm 27.4 SE 18 21 1012.1 - - - - - - - - -
17/12:30pm 27.4 ESE 19 22 1012.5 - - - - - - - - -
17/12:24pm 27.7 N 17 22 1012.6 - - - - - - - - -
17/12:00pm 27.6 ESE 20 24 1012.9 - - - - - - - - -
17/11:30am 27.5 ESE 21 24 1013.4 - - - - - - - - -
17/11:00am 27.4 ESE 22 23 1013.6 - - - - - - - - -
17/10:30am 26.8 ESE 20 22 1013.8 - - - - - - - - -
17/10:00am 26.0 E 19 21 1013.8 - - - - - - - - -
17/09:30am 25.9 E 22 26 1013.9 - - - - - - - - -
17/09:00am 25.9 E 22 27 1013.5 - - - - - - - - -
17/08:38am 26.0 E 25 27 1013.5 - - - - - - - - -
17/08:30am 27.1 ESE 23 28 1013.7 - - - - - - - - -
17/08:00am 27.5 ESE 22 27 1013.1 - - - - - - - - -
17/07:30am 27.4 ESE 21 26 1013.1 - - - - - - - - -
17/07:00am 27.4 ESE 21 23 1012.5 - - - - - - - - -
17/06:30am 27.1 ESE 20 22 1012.4 - - - - - - - - -
17/06:00am 27.4 ESE 19 20 1011.9 - - - - - - - - -
17/05:30am 27.3 ESE 18 21 1011.8 - - - - - - - - -
17/05:00am 27.3 ESE 18 21 1011.1 - - - - - - - - -
17/04:30am 27.4 ESE 21 24 1010.9 - - - - - - - - -
17/04:00am 27.3 ESE 19 22 1010.7 - - - - - - - - -

Other Formats:

Comma delimited format used in spreadsheet applications
http://www.bom.gov.au/fwo/IDQ60701/IDQ60701.95288.axf

JavaScript Object Notation format (JSON) in row-major order
http://www.bom.gov.au/fwo/IDQ60701/IDQ60701.95288.json